If you wish to contribute or participate in the discussions about articles you are invited to join SKYbrary as a registered user

 Actions

Funafuti International Airport

From SKYbrary Wiki

NGFU
Airport
ICAO: NGFU – IATA: FUN
Summary
Name Funafuti International Airport
Region Asia and Pacific
Territory Tuvalu TV.gif
Location Funafuti Atoll, Tuvalu
Serving Funafuti
Coordinates 8° 31' 28.16" S, 179° 11' 47.65" E
Runways
Designator Length Width Surface ROPS
3/21 1536 m5,039.37 ft
0 m0 ft
UNK /


METAR
Observation NGFU 210000Z VRB02KT 9999 FEW021 30/25 Q1009
Station Funafuti
Date/Time 21 July 2019 00:00:00
Wind direction °
Wind speed 02 kts
Lowest cloud amount few clouds
Temperature 30°C
Dew point 25°C
Humidity 74%
QNH 1009 hPa
Weather condition n/a

Description

Funafuti International Airport is an airport in Funafuti, capital of the island nation of Tuvalu.

Maps

Terrain

Loading map...

Airport Layout

Loading map...


Accidents & Serious Incidents at or in vicinity of NGFU

None on SKYbrary